This is the latest recevied weather packets stored in our database for station/object K4NSC-13. If no packets are shown the sender has not sent any weather packets the latest 10 day(s).
| Time | Temp. | Humidity | Pressure | Rain* | Wind** | Luminosity | Snow |
|---|---|---|---|---|---|---|---|
| 1778112943 | 27.22° C | 60% | 1011.2 hPa | 0 mm | - | 2 W/m² | - |
| 1778112326 | 27.78° C | 59% | 1011.1 hPa | 0 mm | - | 5 W/m² | - |
| 1778106927 | 29.44° C | 53% | 1011.4 hPa | 0 mm | - | 86 W/m² | - |
| 1778103944 | 30.56° C | 52% | 1011.6 hPa | 0 mm | - | 418 W/m² | - |
| 1778101518 | 30° C | 55% | 1011.4 hPa | 0 mm | - | 523 W/m² | - |
| 1778100924 | 30° C | 55% | 1011.5 hPa | 0 mm | - | 553 W/m² | - |
| 1778100318 | 30° C | 56% | 1011.6 hPa | 0 mm | - | 591 W/m² | - |
| 1778091321 | 25° C | 69% | 1014.3 hPa | 0 mm | - | 367 W/m² | - |
| 1778090731 | 25° C | 70% | 1014.6 hPa | 0 mm | - | 307 W/m² | - |
| 1778090141 | 25° C | 70% | 1014.8 hPa | 0 mm | - | 218 W/m² | - |
| 1778088941 | 25° C | 70% | 1015.3 hPa | 0 mm | - | 501 W/m² | - |
| 1778087131 | 24.44° C | 72% | 1015.9 hPa | 0 mm | - | 339 W/m² | - |
| 1778078120 | 21.67° C | 78% | 1015.9 hPa | 0 mm | - | 273 W/m² | - |
| 1778071519 | 18.33° C | 82% | 1015.9 hPa | 0 mm | - | 181 W/m² | - |
| 1778069722 | 18.33° C | 83% | 1015.5 hPa | 0 mm | - | 89 W/m² | - |
| 1778066723 | 17.78° C | 84% | 1014.6 hPa | 0 mm | - | 40 W/m² | - |
| 1778066120 | 17.22° C | 85% | 1014.7 hPa | 0 mm | - | 44 W/m² | - |
| 1778065562 | 17.22° C | 85% | 1014.8 hPa | 0 mm | - | 34 W/m² | - |
| 1778064921 | 17.22° C | 86% | 1014.7 hPa | 0 mm | - | 20 W/m² | - |
| 1778063144 | 17.22° C | 86% | 1014.5 hPa | 0 mm | - | 1 W/m² | - |
| 1778059522 | 16.67° C | 88% | 1014.9 hPa | 0 mm | - | 0 W/m² | - |
| 1778057131 | 16.67° C | 87% | 1015 hPa | 0 mm | - | 0 W/m² | - |
| 1778054726 | 16.67° C | 86% | 1015.2 hPa | 0 mm | - | 0 W/m² | - |
| 1778054126 | 16.67° C | 85% | 1015.3 hPa | 0 mm | - | 0 W/m² | - |
| 1778053546 | 16.67° C | 85% | 1015.3 hPa | 0 mm | - | 0 W/m² | - |
* Rain latest hour (hover to see other rain measurements)
** Current wind speed in m/s (hover to see current wind gust speed)